Riceton, Canada
Current Conditions -  °F | °C
As of 9:40 PM on Friday 28 Nov 2014 (Local Time) from CYQR Reporting Station
Light Snow Light Snow  
Wind Chill: -11°   Ceiling: 1100
Heat Index: -11°   Visibility: 1.5mi
Dew Point: -13°   Wind: 2mph
Humidity: 85%   Direction: 190°S
Pressure: 29.49"   Gusts: NA
Location:  50.1°N, 104.32°W
Report Text: CYQR 290340Z 19002KT 1 1/2SM -SN OVC011 M11/M13 A2949 RMK SC8 SLP028
Loading
Personal Weather Stations






























Interactive Weather Map New forecast layout! Learn more

10-Day Weather Forecast

Advertisements
Track Severe Weather on mobile